Surfside Beach, South Carolina
Current Conditions -  °F | °C
As of 9:53 AM on Wednesday 26 Nov 2014 (Local Time) from KMYR Reporting Station
Light Rain Light Rain  
Wind Chill: 52°   Ceiling: 900
Heat Index: 52°   Visibility: 8mi
Dew Point: 46°   Wind: 17mph
Humidity: 82%   Direction: 350°N
Pressure: 29.86"   Gusts: NA
Location:  33.6169°N, 78.9894°W
Report Text: KMYR 261453Z 35015KT 8SM -RA OVC009 11/08 A2986
Loading
Personal Weather Stations






























Interactive Weather Map New forecast layout! Learn more

10-Day Weather Forecast

Advertisements
Track Severe Weather on mobile